< Typhoon 199626 1997 Season Typhoon 199702 >
Typhoon 199701 (ISA)
General InformationTrack Information on Google MapsDetailed Wind InformationList of All Images || Disaster Info.ResourceGoogle EarthGE AnimationAtom FeedGeoJSON
Detalied Best Track (Time Zone = UTC)
Year Month Day Hour Lat. Long. Pressure (hPa) Wind (kt) Class Image Chart
1997 4 12 00 7.5 158.5 1002 0 2 Image Chart
1997 4 12 06 7.8 158.6 1002 0 2 Image Chart
1997 4 12 12 8.1 158.8 1000 0 2 Image Chart
1997 4 12 18 8.5 159.1 1000 0 2 Image Chart
1997 4 13 00 8.9 158.8 996 35 3 Image Chart
1997 4 13 06 9.0 157.9 994 35 3 Image Chart
1997 4 13 12 9.1 157.2 994 35 3 Image Chart
1997 4 13 18 9.3 156.2 994 35 3 Image Chart
1997 4 14 00 9.8 155.2 992 40 3 Image Chart
1997 4 14 06 10.1 154.3 992 40 3 Image Chart
1997 4 14 12 10.2 153.2 992 40 3 Image Chart
1997 4 14 18 10.1 152.1 990 40 3 Image Chart
1997 4 15 00 10.1 150.8 985 45 3 Image Chart
1997 4 15 06 10.1 149.3 980 50 4 Image Chart
1997 4 15 12 10.2 148.3 980 50 4 Image Chart
1997 4 15 18 10.3 147.3 975 55 4 Image Chart
1997 4 16 00 10.3 146.8 970 65 5 Image Chart
1997 4 16 06 10.6 145.9 970 65 5 Image Chart
1997 4 16 12 10.8 145.1 970 65 5 Image Chart
1997 4 16 18 11.2 144.3 970 65 5 Image Chart
1997 4 17 00 11.5 143.6 965 70 5 Image Chart
1997 4 17 06 12.0 142.8 960 70 5 Image Chart
1997 4 17 12 12.5 142.0 960 70 5 Image Chart
1997 4 17 18 12.8 141.2 960 70 5 Image Chart
1997 4 18 00 13.0 140.5 960 70 5 Image Chart
1997 4 18 06 13.2 139.8 960 70 5 Image Chart
1997 4 18 12 13.6 139.3 955 75 5 Image Chart
1997 4 18 18 13.9 138.9 955 75 5 Image Chart
1997 4 19 00 14.2 138.5 950 80 5 Image Chart
1997 4 19 06 14.8 138.2 950 80 5 Image Chart
1997 4 19 12 15.4 138.0 945 85 5 Image Chart
1997 4 19 18 15.9 137.8 945 85 5 Image Chart
1997 4 20 00 16.6 137.7 940 85 5 Image Chart
1997 4 20 06 17.4 137.6 940 85 5 Image Chart
1997 4 20 12 18.2 137.6 940 85 5 Image Chart
1997 4 20 18 19.2 137.6 940 85 5 Image Chart
1997 4 21 00 20.0 137.7 950 80 5 Image Chart
1997 4 21 06 20.9 138.0 955 75 5 Image Chart
1997 4 21 12 22.1 138.3 960 70 5 Image Chart
1997 4 21 18 23.3 138.9 970 65 5 Image Chart
1997 4 22 00 24.6 139.8 975 60 4 Image Chart
1997 4 22 03 25.1 140.4 975 60 4 Image Chart
1997 4 22 06 25.8 141.1 975 60 4 Image Chart
1997 4 22 09 26.3 141.8 975 60 4 Image Chart
1997 4 22 12 27.0 142.7 980 55 4 Image Chart
1997 4 22 15 27.4 143.4 980 55 4 Image Chart
1997 4 22 18 27.7 144.1 985 50 4 Image Chart
1997 4 22 21 27.9 145.0 985 50 4 Image Chart
1997 4 23 00 28.1 145.8 990 45 3 Image Chart
1997 4 23 06 28.8 148.2 990 45 3 Image Chart
1997 4 23 12 29.8 151.3 994 45 3 Image Chart
1997 4 23 18 31.0 154.7 996 0 6 Image Chart
1997 4 24 00 32.4 158.2 1000 0 6 Image Chart
1997 4 24 06 34.4 161.6 1000 0 6 Image Chart
1997 4 24 12 36.5 164.6 1004 0 6 Image Chart
Japan Meteorological Agency Best Track Data | Correction Date : 1998-01-19
< Typhoon 199626 1997 Season Typhoon 199702 >

Help